createdAt,value
2018-11-14T00:00:30.882Z,4.10
2018-11-14T00:03:00.506Z,3.70
2018-11-14T00:05:29.038Z,3.87
2018-11-14T00:07:57.671Z,3.80
2018-11-14T00:10:26.356Z,4.13
2018-11-14T00:12:54.981Z,3.70
2018-11-14T00:15:24.712Z,3.43
2018-11-14T00:17:53.654Z,3.97
2018-11-14T00:20:22.196Z,3.77
2018-11-14T00:22:51.397Z,2.93
2018-11-14T00:25:20.014Z,3.63
2018-11-14T00:27:48.673Z,3.67
2018-11-14T00:30:21.816Z,4.10
2018-11-14T00:32:50.482Z,4.33
2018-11-14T00:35:19.039Z,4.43
2018-11-14T00:37:47.991Z,4.30
2018-11-14T00:40:17.766Z,4.00
2018-11-14T00:42:46.875Z,3.83
2018-11-14T00:45:18.076Z,3.67
2018-11-14T00:47:47.547Z,4.17
2018-11-14T00:50:16.891Z,5.00
2018-11-14T00:52:45.965Z,4.77
2018-11-14T00:55:16.589Z,4.40
2018-11-14T00:57:46.553Z,5.00
2018-11-14T01:00:19.813Z,4.80
2018-11-14T01:02:48.441Z,4.80
2018-11-14T01:05:17.518Z,5.30
2018-11-14T01:07:46.101Z,4.97
2018-11-14T01:10:16.310Z,5.33
2018-11-14T01:12:45.288Z,5.87
2018-11-14T01:15:15.869Z,5.10
2018-11-14T01:17:44.654Z,5.40
2018-11-14T01:20:15.165Z,5.17
2018-11-14T01:22:44.189Z,4.97
2018-11-14T01:25:13.696Z,5.33
2018-11-14T01:27:42.658Z,5.20
2018-11-14T01:30:13.831Z,5.30
2018-11-14T01:32:42.789Z,5.80
2018-11-14T01:35:11.411Z,5.53
2018-11-14T01:37:40.079Z,6.97
2018-11-14T01:40:12.241Z,6.43
2018-11-14T01:42:40.838Z,5.83
2018-11-14T01:45:10.746Z,6.23
2018-11-14T01:47:39.290Z,6.87
2018-11-14T01:50:09.153Z,7.87
2018-11-14T01:52:37.997Z,6.80
2018-11-14T01:55:08.294Z,7.53
2018-11-14T01:57:36.859Z,7.97
2018-11-14T02:00:08.386Z,8.13
2018-11-14T02:02:36.955Z,8.00
2018-11-14T02:05:06.772Z,7.80
2018-11-14T02:07:35.594Z,8.00
2018-11-14T02:10:04.564Z,8.20
2018-11-14T02:12:33.095Z,7.07
2018-11-14T02:15:01.709Z,7.23
2018-11-14T02:17:30.285Z,6.23
2018-11-14T02:19:58.837Z,6.87
2018-11-14T02:22:27.399Z,6.87
2018-11-14T02:24:55.952Z,6.40
2018-11-14T02:27:24.453Z,7.07
2018-11-14T02:29:53.641Z,6.57
2018-11-14T02:32:22.146Z,7.23
2018-11-14T02:34:50.721Z,7.27
2018-11-14T02:37:19.281Z,6.60
2018-11-14T02:39:47.834Z,6.60
2018-11-14T02:42:16.370Z,6.83
2018-11-14T02:44:44.982Z,6.90
2018-11-14T02:47:13.601Z,7.03
2018-11-14T02:49:42.167Z,6.27
2018-11-14T02:52:10.754Z,7.20
2018-11-14T02:54:39.287Z,6.83
2018-11-14T02:57:07.840Z,6.97
2018-11-14T02:59:36.747Z,6.93
2018-11-14T03:02:06.311Z,7.50
2018-11-14T03:04:35.197Z,7.67
2018-11-14T03:07:03.745Z,7.00
2018-11-14T03:09:32.327Z,6.83
2018-11-14T03:12:00.946Z,6.70
2018-11-14T03:14:29.508Z,7.23
2018-11-14T03:16:58.039Z,7.17
2018-11-14T03:19:26.590Z,6.77
2018-11-14T03:21:55.154Z,7.17
2018-11-14T03:24:23.702Z,7.43
2018-11-14T03:26:52.253Z,7.90
2018-11-14T03:29:20.833Z,7.33
2018-11-14T03:31:49.372Z,7.00
2018-11-14T03:34:18.073Z,7.60
2018-11-14T03:36:46.762Z,8.03
2018-11-14T03:39:15.286Z,6.87
2018-11-14T03:41:43.855Z,7.20
2018-11-14T03:44:12.474Z,6.83
2018-11-14T03:46:41.002Z,7.07
2018-11-14T03:49:09.502Z,6.90
2018-11-14T03:51:38.056Z,7.17
2018-11-14T03:54:06.581Z,7.37
2018-11-14T03:56:35.121Z,6.90
2018-11-14T03:59:04.879Z,7.53
2018-11-14T04:01:33.421Z,6.97
2018-11-14T04:04:01.945Z,7.27
2018-11-14T04:06:30.509Z,8.00
2018-11-14T04:08:59.033Z,7.13
2018-11-14T04:11:27.565Z,7.97
2018-11-14T04:13:56.141Z,7.37
2018-11-14T04:16:24.721Z,7.90
2018-11-14T04:18:53.335Z,6.73
2018-11-14T04:21:21.899Z,7.60
2018-11-14T04:23:51.178Z,7.17
2018-11-14T04:26:19.815Z,6.83
2018-11-14T04:28:48.369Z,7.20
2018-11-14T04:31:17.199Z,6.67
2018-11-14T04:33:45.782Z,6.20
2018-11-14T04:36:14.376Z,7.30
2018-11-14T04:38:43.067Z,7.73
2018-11-14T04:41:11.590Z,7.43
2018-11-14T04:43:40.138Z,7.20
2018-11-14T04:46:08.716Z,6.50
2018-11-14T04:48:37.237Z,6.40
2018-11-14T04:51:06.570Z,6.40
2018-11-14T04:53:35.110Z,6.67
2018-11-14T04:56:03.626Z,6.90
2018-11-14T04:58:32.186Z,7.07
2018-11-14T05:01:00.706Z,7.30
2018-11-14T05:03:29.296Z,7.33
2018-11-14T05:05:58.197Z,6.50
2018-11-14T05:08:26.774Z,7.13
2018-11-14T05:10:55.437Z,8.80
2018-11-14T05:13:23.994Z,8.47
2018-11-14T05:15:52.521Z,7.80
2018-11-14T05:18:21.089Z,7.83
2018-11-14T05:20:49.636Z,8.10
2018-11-14T05:23:18.181Z,7.67
2018-11-14T05:25:46.763Z,7.23
2018-11-14T05:28:15.353Z,7.43
2018-11-14T05:30:43.870Z,7.93
2018-11-14T05:33:12.392Z,7.33
2018-11-14T05:35:40.997Z,7.40
2018-11-14T05:38:09.513Z,7.93
2018-11-14T05:40:38.218Z,7.50
2018-11-14T05:43:06.790Z,7.37
2018-11-14T05:45:35.370Z,7.37
2018-11-14T05:48:04.937Z,8.00
2018-11-14T05:50:33.573Z,7.87
2018-11-14T05:53:02.134Z,7.17
2018-11-14T05:55:30.650Z,7.93
2018-11-14T05:57:59.270Z,7.67
2018-11-14T06:00:31.476Z,8.07
2018-11-14T06:03:01.520Z,8.23
2018-11-14T06:05:30.041Z,8.83
2018-11-14T06:07:58.609Z,8.93
2018-11-14T06:10:27.265Z,8.43
2018-11-14T06:12:55.809Z,9.73
2018-11-14T06:15:24.893Z,9.50
2018-11-14T06:17:54.700Z,9.70
2018-11-14T06:20:23.446Z,9.33
2018-11-14T06:22:52.664Z,9.57
2018-11-14T06:25:25.994Z,9.50
2018-11-14T06:27:55.359Z,10.53
2018-11-14T06:30:24.463Z,9.20
2018-11-14T06:32:53.486Z,8.47
2018-11-14T06:35:22.257Z,7.77
2018-11-14T06:37:51.482Z,7.30
2018-11-14T06:40:20.402Z,7.37
2018-11-14T06:42:49.150Z,7.00
2018-11-14T06:45:19.057Z,6.50
2018-11-14T06:47:48.937Z,6.30
2018-11-14T06:50:17.613Z,7.20
2018-11-14T06:52:47.294Z,8.07
2018-11-14T06:55:16.850Z,7.30
2018-11-14T06:57:45.472Z,7.83
2018-11-14T07:00:31.512Z,7.83
2018-11-14T07:03:01.392Z,7.47
2018-11-14T07:05:30.019Z,7.40
2018-11-14T07:07:58.735Z,6.97
2018-11-14T07:10:29.847Z,7.60
2018-11-14T07:13:03.513Z,6.83
2018-11-14T07:15:32.082Z,6.67
2018-11-14T07:18:01.651Z,6.13
2018-11-14T07:20:32.518Z,6.47
2018-11-14T07:23:01.069Z,6.20
2018-11-14T07:25:29.634Z,5.93
2018-11-14T07:27:58.664Z,6.40
2018-11-14T07:30:28.406Z,6.57
2018-11-14T07:33:03.433Z,6.03
2018-11-14T07:35:32.025Z,5.77
2018-11-14T07:38:37.160Z,5.77
2018-11-14T07:41:07.363Z,6.27
2018-11-14T07:43:36.878Z,5.27
2018-11-14T07:46:06.085Z,6.00
2018-11-14T07:48:34.938Z,5.37
2018-11-14T07:51:03.618Z,5.50
2018-11-14T07:53:32.460Z,5.83
2018-11-14T07:56:01.003Z,5.57
2018-11-14T07:58:29.552Z,6.40
2018-11-14T08:00:58.326Z,5.30
2018-11-14T08:03:26.983Z,5.37
2018-11-14T08:05:55.976Z,6.67
2018-11-14T08:08:24.652Z,6.17
2018-11-14T08:10:53.537Z,5.90
2018-11-14T08:13:26.289Z,5.97
2018-11-14T08:15:56.785Z,6.17
2018-11-14T08:18:25.998Z,5.97
2018-11-14T08:20:54.897Z,6.33
2018-11-14T08:23:23.794Z,5.73
2018-11-14T08:25:52.358Z,6.70
2018-11-14T08:28:21.033Z,6.40
2018-11-14T08:30:49.580Z,6.30
2018-11-14T08:33:18.126Z,6.80
2018-11-14T08:35:46.761Z,6.40
2018-11-14T08:38:15.349Z,6.10
2018-11-14T08:40:43.890Z,6.00
2018-11-14T08:43:12.838Z,5.90
2018-11-14T08:45:41.729Z,6.27
2018-11-14T08:48:11.970Z,6.13
2018-11-14T08:50:42.229Z,6.87
2018-11-14T08:53:11.385Z,5.90
2018-11-14T08:55:39.925Z,6.33
2018-11-14T08:58:10.809Z,6.90
2018-11-14T09:00:39.841Z,6.17
2018-11-14T09:03:10.323Z,6.13
2018-11-14T09:05:38.925Z,5.70
2018-11-14T09:08:07.576Z,5.87
2018-11-14T09:10:36.189Z,6.23
2018-11-14T09:13:04.936Z,5.73
2018-11-14T09:15:33.574Z,5.37
2018-11-14T09:18:02.147Z,5.80
2018-11-14T09:20:30.738Z,5.83
2018-11-14T09:22:59.273Z,5.57
2018-11-14T09:25:29.654Z,5.23
2018-11-14T09:27:58.740Z,5.40
2018-11-14T09:30:27.657Z,5.50
2018-11-14T09:32:56.304Z,5.33
2018-11-14T09:35:25.903Z,5.10
2018-11-14T09:37:55.865Z,4.60
2018-11-14T09:40:25.835Z,4.70
2018-11-14T09:42:54.379Z,5.60
2018-11-14T09:45:25.125Z,4.80
2018-11-14T09:47:53.810Z,4.67
2018-11-14T09:50:23.642Z,4.30
2018-11-14T09:52:55.424Z,5.60
2018-11-14T09:55:24.013Z,4.77
2018-11-14T09:57:52.550Z,4.73
2018-11-14T10:00:23.443Z,4.80
2018-11-14T10:02:55.599Z,4.53
2018-11-14T10:05:25.488Z,4.83
2018-11-14T10:07:54.280Z,4.10
2018-11-14T10:10:23.457Z,4.20
2018-11-14T10:12:52.361Z,4.50
2018-11-14T10:15:23.041Z,4.30
2018-11-14T10:17:51.655Z,4.60
2018-11-14T10:20:21.565Z,5.27
2018-11-14T10:22:50.114Z,3.70
2018-11-14T10:25:19.086Z,3.27
2018-11-14T10:27:48.355Z,3.00
2018-11-14T10:30:21.444Z,3.27
2018-11-14T10:32:50.646Z,3.27
2018-11-14T10:35:19.184Z,3.47
2018-11-14T10:37:47.731Z,3.27
2018-11-14T10:40:19.673Z,3.27
2018-11-14T10:42:48.246Z,3.03
2018-11-14T10:45:18.542Z,3.20
2018-11-14T10:47:47.210Z,2.90
2018-11-14T10:50:19.378Z,3.13
2018-11-14T10:52:48.396Z,3.23
2018-11-14T11:06:58.534Z,2.93
2018-11-14T11:09:32.362Z,2.80
2018-11-14T11:12:06.055Z,3.10
2018-11-14T11:14:37.169Z,3.50
2018-11-14T11:17:10.956Z,3.30
2018-11-14T11:19:39.817Z,3.00
2018-11-14T11:22:08.396Z,3.20
2018-11-14T11:24:36.957Z,3.70
2018-11-14T11:27:05.636Z,3.30
2018-11-14T11:29:34.245Z,3.30
2018-11-14T11:32:03.331Z,3.37
2018-11-14T11:34:32.117Z,3.37
2018-11-14T11:37:00.698Z,3.37
2018-11-14T11:39:29.287Z,3.53
2018-11-14T11:41:57.909Z,3.70
2018-11-14T11:44:26.538Z,3.77
2018-11-14T11:46:55.264Z,3.67
2018-11-14T11:49:23.984Z,3.40
2018-11-14T11:51:52.745Z,3.67
2018-11-14T11:54:21.325Z,3.57
2018-11-14T11:56:49.928Z,3.80
2018-11-14T11:59:18.500Z,3.40
2018-11-14T12:01:47.266Z,4.23
2018-11-14T12:04:15.822Z,4.27
2018-11-14T12:06:44.347Z,3.93
2018-11-14T12:09:13.417Z,4.03
2018-11-14T12:11:41.981Z,4.17
2018-11-14T12:14:10.513Z,4.43
2018-11-14T12:16:39.114Z,4.83
2018-11-14T12:19:07.810Z,3.73
2018-11-14T12:21:36.693Z,4.17
2018-11-14T12:24:05.486Z,3.33
2018-11-14T12:26:34.053Z,3.40
2018-11-14T12:29:02.574Z,3.37
2018-11-14T12:31:31.126Z,4.00
2018-11-14T12:33:59.734Z,4.03
2018-11-14T12:36:28.326Z,4.30
2018-11-14T12:38:56.892Z,3.70
2018-11-14T12:41:25.593Z,4.10
2018-11-14T12:43:54.097Z,4.13
2018-11-14T12:46:22.634Z,8.77
2018-11-14T12:48:51.262Z,5.70
2018-11-14T12:51:20.175Z,5.23
2018-11-14T12:53:48.860Z,113.67
2018-11-14T12:56:17.413Z,15.57
2018-11-14T12:58:45.945Z,7.03
2018-11-14T13:01:14.481Z,10.70
2018-11-14T13:03:43.152Z,7.33
2018-11-14T13:06:11.685Z,7.53
2018-11-14T13:08:40.286Z,7.57
2018-11-14T13:11:09.179Z,12.20
2018-11-14T13:13:43.070Z,6.20
2018-11-14T13:16:11.734Z,6.40
2018-11-14T13:18:40.301Z,5.70
2018-11-14T13:21:09.257Z,5.10
2018-11-14T13:23:37.856Z,5.63
2018-11-14T13:26:06.565Z,5.83
2018-11-14T13:28:35.113Z,6.13
2018-11-14T13:31:03.753Z,6.67
2018-11-14T13:33:32.312Z,6.37
2018-11-14T13:36:00.912Z,6.30
2018-11-14T13:38:29.492Z,5.50
2018-11-14T13:40:58.030Z,6.20
2018-11-14T13:43:26.565Z,6.23
2018-11-14T13:45:55.257Z,6.07
2018-11-14T13:48:23.870Z,4.70
2018-11-14T13:50:52.407Z,4.20
2018-11-14T13:53:21.973Z,3.90
2018-11-14T13:55:50.739Z,4.70
2018-11-14T13:58:19.266Z,5.20
2018-11-14T14:00:47.845Z,6.30
2018-11-14T14:03:16.391Z,6.97
2018-11-14T14:05:44.914Z,12.00
2018-11-14T14:08:13.531Z,18.73
2018-11-14T14:10:42.070Z,25.10
2018-11-14T14:13:10.659Z,25.20
2018-11-14T14:15:39.589Z,40.33
2018-11-14T14:18:08.152Z,34.90
2018-11-14T14:20:36.676Z,17.60
2018-11-14T14:23:05.804Z,29.50
2018-11-14T14:25:34.337Z,40.53
2018-11-14T14:28:02.893Z,57.50
2018-11-14T14:30:31.433Z,77.03
2018-11-14T14:32:59.973Z,71.17
2018-11-14T14:35:28.542Z,105.97
2018-11-14T14:37:57.135Z,82.13
2018-11-14T14:40:25.875Z,86.37
2018-11-14T14:42:54.413Z,76.70
2018-11-14T14:45:24.884Z,49.53
2018-11-14T14:47:53.456Z,54.43
2018-11-14T14:50:22.031Z,15.07
2018-11-14T14:52:50.633Z,10.00
2018-11-14T14:55:21.123Z,10.83
2018-11-14T14:57:49.761Z,7.03
2018-11-14T15:00:23.930Z,5.97
2018-11-14T15:02:52.869Z,6.70
2018-11-14T15:05:21.430Z,6.40
2018-11-14T15:07:49.989Z,6.70
2018-11-14T15:10:19.940Z,8.47
2018-11-14T15:12:48.534Z,8.93
2018-11-14T15:15:17.468Z,12.40
2018-11-14T15:17:46.081Z,19.67
2018-11-14T15:20:16.875Z,25.07
2018-11-14T15:22:45.625Z,47.83
2018-11-14T15:25:15.564Z,38.80
2018-11-14T15:27:44.547Z,24.40
2018-11-14T15:30:15.823Z,15.87
2018-11-14T15:32:44.362Z,16.27
2018-11-14T15:35:13.554Z,21.83
2018-11-14T15:37:42.154Z,24.50
2018-11-14T15:40:12.615Z,36.33
2018-11-14T15:42:41.263Z,34.40
2018-11-14T15:45:13.622Z,24.63
2018-11-14T15:47:42.329Z,15.00
2018-11-14T15:50:14.209Z,12.20
2018-11-14T15:52:44.066Z,11.67
2018-11-14T15:55:21.585Z,11.40
2018-11-14T15:57:50.330Z,10.53
2018-11-14T16:00:28.356Z,11.20
2018-11-14T16:02:57.094Z,11.60
2018-11-14T16:05:27.091Z,12.07
2018-11-14T16:07:57.222Z,12.00
2018-11-14T16:10:26.642Z,11.87
2018-11-14T16:12:55.212Z,11.70
2018-11-14T16:15:26.190Z,11.20
2018-11-14T16:17:54.810Z,12.23
2018-11-14T16:20:24.619Z,11.13
2018-11-14T16:22:53.242Z,11.80
2018-11-14T16:25:23.220Z,13.53
2018-11-14T16:27:53.168Z,12.23
2018-11-14T16:30:30.996Z,12.63
2018-11-14T16:33:01.246Z,12.40
2018-11-14T16:35:29.858Z,13.43
2018-11-14T16:37:58.525Z,12.23
2018-11-14T16:40:30.698Z,12.93
2018-11-14T16:43:00.429Z,14.47
2018-11-14T16:45:29.013Z,15.57
2018-11-14T16:47:57.795Z,16.43
2018-11-14T16:50:26.467Z,16.50
2018-11-14T16:52:55.190Z,17.63
2018-11-14T16:55:24.148Z,19.57
2018-11-14T16:57:54.281Z,19.33
2018-11-14T17:00:30.226Z,19.63
2018-11-14T17:02:59.856Z,19.63
2018-11-14T17:05:29.619Z,21.00
2018-11-14T17:07:58.549Z,18.27
2018-11-14T17:10:27.253Z,18.90
2018-11-14T17:12:57.259Z,18.37
2018-11-14T17:15:26.973Z,18.00
2018-11-14T17:17:55.579Z,17.00
2018-11-14T17:20:24.325Z,17.57
2018-11-14T17:22:54.260Z,16.93
2018-11-14T17:25:22.926Z,17.53
2018-11-14T17:27:51.732Z,20.07
2018-11-14T17:30:22.777Z,18.33
2018-11-14T17:32:51.915Z,19.80
2018-11-14T17:35:20.831Z,18.87
2018-11-14T17:37:50.029Z,18.20
2018-11-14T17:40:28.242Z,17.87
2018-11-14T17:42:57.345Z,19.53
2018-11-14T17:45:27.247Z,19.43
2018-11-14T17:47:56.382Z,19.13
2018-11-14T17:50:29.942Z,20.20
2018-11-14T17:52:59.527Z,21.30
2018-11-14T17:55:28.448Z,23.10
2018-11-14T17:57:57.621Z,21.00
2018-11-14T18:00:27.660Z,21.90
2018-11-14T18:02:56.429Z,21.33
2018-11-14T18:05:26.388Z,20.70
2018-11-14T18:07:55.560Z,20.70
2018-11-14T18:10:28.449Z,19.83
2018-11-14T18:12:58.337Z,19.57
2018-11-14T18:15:27.099Z,19.13
2018-11-14T18:17:56.806Z,28.57
2018-11-14T18:20:27.918Z,37.80
2018-11-14T18:22:56.953Z,45.07
2018-11-14T18:25:26.492Z,42.10
2018-11-14T18:27:55.258Z,48.27
2018-11-14T18:30:25.335Z,43.47
2018-11-14T18:32:55.981Z,48.87
2018-11-14T18:35:25.368Z,38.10
2018-11-14T18:37:57.422Z,73.17
2018-11-14T18:40:37.537Z,58.50
2018-11-14T18:43:07.080Z,80.03
2018-11-14T18:45:36.476Z,80.33
2018-11-14T18:48:07.020Z,78.67
2018-11-14T18:50:36.356Z,82.60
2018-11-14T18:53:06.093Z,113.97
2018-11-14T18:55:36.036Z,124.03
2018-11-14T18:58:08.847Z,106.63
2018-11-14T19:00:38.352Z,98.53
2018-11-14T19:03:07.247Z,107.07
2018-11-14T19:05:35.839Z,100.33
2018-11-14T19:08:04.992Z,81.27
2018-11-14T19:10:34.515Z,61.47
2018-11-14T19:13:03.959Z,49.43
2018-11-14T19:15:34.260Z,38.97
2018-11-14T19:18:03.330Z,30.43
2018-11-14T19:20:34.409Z,26.07
2018-11-14T19:23:03.952Z,25.53
2018-11-14T19:25:34.198Z,25.73
2018-11-14T19:28:03.165Z,25.77
2018-11-14T19:30:33.279Z,23.00
2018-11-14T19:33:02.792Z,23.73
2018-11-14T19:35:31.870Z,22.23
2018-11-14T19:38:01.476Z,21.00
2018-11-14T19:40:32.851Z,20.50
2018-11-14T19:43:03.010Z,22.80
2018-11-14T19:45:33.874Z,22.10
2018-11-14T19:48:02.747Z,21.53
2018-11-14T19:50:31.904Z,23.23
2018-11-14T19:53:01.107Z,22.57
2018-11-14T19:55:31.602Z,23.60
2018-11-14T19:58:02.418Z,23.40
2018-11-14T20:00:32.649Z,21.80
2018-11-14T20:03:03.543Z,21.63
2018-11-14T20:05:32.284Z,22.23
2018-11-14T20:08:00.993Z,23.37
2018-11-14T20:10:31.260Z,24.67
2018-11-14T20:13:00.271Z,23.30
2018-11-14T20:15:31.092Z,25.43
2018-11-14T20:18:00.622Z,23.30
2018-11-14T20:20:33.790Z,25.60
2018-11-14T20:23:02.661Z,24.60
2018-11-14T20:25:31.463Z,25.60
2018-11-14T20:28:00.358Z,26.07
2018-11-14T20:30:30.594Z,28.80
2018-11-14T20:33:00.870Z,28.50
2018-11-14T20:35:29.687Z,29.63
2018-11-14T20:37:58.584Z,29.97
2018-11-14T20:40:27.645Z,31.13
2018-11-14T20:42:57.716Z,31.70
2018-11-14T20:45:27.954Z,33.97
2018-11-14T20:47:58.713Z,35.43
2018-11-14T20:50:28.325Z,33.40
2018-11-14T20:53:02.045Z,42.37
2018-11-14T20:55:31.272Z,43.60
2018-11-14T20:58:00.239Z,41.47
2018-11-14T21:00:33.575Z,38.43
2018-11-14T21:03:02.847Z,40.20
2018-11-14T21:05:32.543Z,43.50
2018-11-14T21:08:01.315Z,45.83
2018-11-14T21:10:31.286Z,43.97
2018-11-14T21:13:00.563Z,44.50
2018-11-14T21:15:31.169Z,45.47
2018-11-14T21:18:00.715Z,44.53
2018-11-14T21:20:29.251Z,44.10
2018-11-14T21:22:57.854Z,45.60
2018-11-14T21:25:27.611Z,43.93
2018-11-14T21:27:57.086Z,44.63
2018-11-14T21:30:27.139Z,44.10
2018-11-14T21:32:55.759Z,42.90
2018-11-14T21:35:28.584Z,43.77
2018-11-14T21:37:58.442Z,42.70
2018-11-14T21:40:27.050Z,41.77
2018-11-14T21:42:55.761Z,49.93
2018-11-14T21:45:25.824Z,57.47
2018-11-14T21:47:59.750Z,57.80
2018-11-14T21:50:29.249Z,59.43
2018-11-14T21:52:57.987Z,60.90
2018-11-14T21:55:26.791Z,58.00
2018-11-14T21:57:55.797Z,60.03
2018-11-14T22:00:25.793Z,60.30
2018-11-14T22:02:55.842Z,61.90
2018-11-14T22:05:24.468Z,61.00
2018-11-14T22:07:53.030Z,64.27
2018-11-14T22:10:22.736Z,93.43
2018-11-14T22:12:51.729Z,94.43
2018-11-14T22:15:21.497Z,89.50
2018-11-14T22:18:05.490Z,89.53
2018-11-14T22:20:34.804Z,87.83
2018-11-14T22:23:05.084Z,83.33
2018-11-14T22:25:33.737Z,76.07
2018-11-14T22:28:02.443Z,70.10
2018-11-14T22:30:32.237Z,76.60
2018-11-14T22:33:01.163Z,85.83
2018-11-14T22:35:31.357Z,80.00
2018-11-14T22:38:00.637Z,83.97
2018-11-14T22:40:30.538Z,78.17
2018-11-14T22:42:59.317Z,75.43
2018-11-14T22:45:29.283Z,74.40
2018-11-14T22:47:57.901Z,85.10
2018-11-14T22:50:27.649Z,81.93
2018-11-14T22:52:56.281Z,89.30
2018-11-14T22:55:25.737Z,88.93
2018-11-14T22:57:54.687Z,85.13
2018-11-14T23:00:28.409Z,79.23
2018-11-14T23:02:58.349Z,73.70
2018-11-14T23:05:27.130Z,75.60
2018-11-14T23:07:56.597Z,76.43
2018-11-14T23:10:25.812Z,74.90
2018-11-14T23:12:54.471Z,73.33
2018-11-14T23:15:24.037Z,66.77
2018-11-14T23:17:53.353Z,57.93
2018-11-14T23:20:22.053Z,55.23
2018-11-14T23:22:51.556Z,52.07
2018-11-14T23:25:20.526Z,47.43
2018-11-14T23:27:50.642Z,48.77
2018-11-14T23:30:20.401Z,42.63
2018-11-14T23:32:50.175Z,42.97
2018-11-14T23:35:27.794Z,43.63
2018-11-14T23:37:57.692Z,39.27
2018-11-14T23:40:26.777Z,42.37
2018-11-14T23:42:55.413Z,39.37
2018-11-14T23:45:24.841Z,40.27
2018-11-14T23:47:53.460Z,40.83
2018-11-14T23:50:23.325Z,38.47
2018-11-14T23:52:53.310Z,39.77
2018-11-14T23:55:23.177Z,41.10
2018-11-14T23:57:51.815Z,42.27
